createdAt,value
2022-09-20T00:01:49.363Z,8.06
2022-09-20T00:04:18.127Z,8.13
2022-09-20T00:06:46.894Z,8.12
2022-09-20T00:09:15.562Z,8.12
2022-09-20T00:11:45.852Z,8.13
2022-09-20T00:14:14.583Z,8.13
2022-09-20T00:16:43.384Z,8.17
2022-09-20T00:19:19.489Z,8.18
2022-09-20T00:21:48.651Z,8.23
2022-09-20T00:24:17.443Z,8.24
2022-09-20T00:26:46.128Z,8.24
2022-09-20T00:29:17.968Z,8.21
2022-09-20T00:31:47.746Z,8.21
2022-09-20T00:34:35.087Z,8.26
2022-09-20T00:37:03.872Z,8.29
2022-09-20T00:39:32.646Z,8.33
2022-09-20T00:42:01.319Z,8.35
2022-09-20T00:44:54.596Z,8.33
2022-09-20T00:47:36.078Z,8.34
2022-09-20T00:50:24.554Z,8.41
2022-09-20T00:53:03.664Z,8.43
2022-09-20T00:55:34.598Z,8.39
2022-09-20T00:58:03.825Z,8.38
2022-09-20T01:00:33.852Z,8.40
2022-09-20T01:03:08.712Z,8.36
2022-09-20T01:05:40.411Z,8.50
2022-09-20T01:08:10.931Z,8.54
2022-09-20T01:10:40.105Z,8.59
2022-09-20T01:13:08.967Z,8.65
2022-09-20T01:15:40.372Z,8.65
2022-09-20T01:18:10.946Z,8.67
2022-09-20T01:20:42.751Z,8.77
2022-09-20T01:23:17.463Z,8.91
2022-09-20T01:26:04.449Z,9.01
2022-09-20T01:28:33.675Z,9.15
2022-09-20T01:31:29.299Z,9.22
2022-09-20T01:34:12.338Z,9.16
2022-09-20T01:36:51.553Z,9.13
2022-09-20T01:39:35.003Z,9.07
2022-09-20T01:42:08.372Z,9.07
2022-09-20T01:44:42.991Z,9.09
2022-09-20T01:47:43.737Z,9.06
2022-09-20T01:50:45.480Z,9.07
2022-09-20T01:54:08.346Z,9.26
2022-09-20T01:57:01.547Z,9.82
2022-09-20T01:59:49.579Z,10.82
2022-09-20T02:02:40.959Z,11.03
2022-09-20T02:05:34.604Z,10.75
2022-09-20T02:08:21.361Z,10.53
2022-09-20T02:11:22.265Z,10.40
2022-09-20T02:14:12.843Z,10.32
2022-09-20T02:17:04.776Z,10.19
2022-09-20T02:19:55.184Z,10.01
2022-09-20T02:22:30.582Z,9.89
2022-09-20T02:25:13.170Z,9.79
2022-09-20T02:27:44.740Z,9.82
2022-09-20T02:30:38.258Z,10.03
2022-09-20T02:33:28.081Z,10.04
2022-09-20T02:36:05.677Z,9.95
2022-09-20T02:39:06.536Z,9.91
2022-09-20T02:42:05.872Z,10.04
2022-09-20T02:45:01.859Z,10.09
2022-09-20T02:47:38.538Z,10.15
2022-09-20T02:50:38.986Z,10.27
2022-09-20T02:53:32.567Z,10.36
2022-09-20T02:56:13.078Z,10.59
2022-09-20T02:58:50.520Z,10.88
2022-09-20T03:01:25.798Z,10.87
2022-09-20T03:04:27.023Z,10.79
2022-09-20T03:07:33.934Z,10.65
2022-09-20T03:10:34.931Z,10.61
2022-09-20T03:13:27.988Z,10.65
2022-09-20T03:16:03.500Z,10.60
2022-09-20T03:18:48.064Z,10.69
2022-09-20T03:21:35.244Z,10.79
2022-09-20T03:24:09.743Z,10.99
2022-09-20T03:26:44.620Z,11.02
2022-09-20T03:29:50.293Z,11.06
2022-09-20T03:32:27.793Z,11.09
2022-09-20T03:35:22.996Z,11.07
2022-09-20T03:38:04.198Z,11.05
2022-09-20T03:40:53.595Z,11.43
2022-09-20T03:43:50.165Z,11.85
2022-09-20T03:46:29.417Z,12.07
2022-09-20T03:49:22.379Z,12.20
2022-09-20T03:52:18.646Z,12.25
2022-09-20T03:55:05.677Z,12.25
2022-09-20T03:58:00.285Z,12.27
2022-09-20T04:01:00.501Z,12.59
2022-09-20T04:03:32.465Z,12.88
2022-09-20T04:06:37.835Z,12.67
2022-09-20T04:09:43.913Z,12.68
2022-09-20T04:12:45.535Z,12.51
2022-09-20T04:15:16.071Z,12.25
2022-09-20T04:17:56.874Z,12.10
2022-09-20T04:20:51.332Z,11.81
2022-09-20T04:23:38.384Z,11.47
2022-09-20T04:26:07.404Z,11.20
2022-09-20T04:28:49.239Z,11.03
2022-09-20T04:31:43.505Z,10.95
2022-09-20T04:34:23.854Z,10.95
2022-09-20T04:37:06.722Z,10.85
2022-09-20T04:39:52.998Z,10.90
2022-09-20T04:42:39.671Z,10.90
2022-09-20T04:45:29.387Z,11.21
2022-09-20T04:48:19.572Z,11.49
2022-09-20T04:50:48.214Z,11.52
2022-09-20T04:53:30.922Z,11.41
2022-09-20T04:56:25.396Z,11.27
2022-09-20T04:59:08.351Z,11.55
2022-09-20T05:02:18.108Z,11.74
2022-09-20T05:05:16.612Z,11.74
2022-09-20T05:08:03.499Z,11.65
2022-09-20T05:10:41.705Z,11.26
2022-09-20T05:13:37.124Z,11.09
2022-09-20T05:16:51.005Z,10.96
2022-09-20T05:19:34.000Z,10.90
2022-09-20T05:22:08.605Z,10.87
2022-09-20T05:24:55.564Z,10.83
2022-09-20T05:27:44.222Z,10.59
2022-09-20T05:30:56.111Z,10.34
2022-09-20T05:33:52.695Z,10.17
2022-09-20T05:36:21.158Z,10.06
2022-09-20T05:39:05.801Z,9.95
2022-09-20T05:42:02.285Z,9.89
2022-09-20T05:44:49.232Z,9.91
2022-09-20T05:47:19.864Z,9.81
2022-09-20T05:50:09.990Z,9.75
2022-09-20T05:52:54.732Z,9.69
2022-09-20T05:55:54.515Z,9.60
2022-09-20T05:58:39.018Z,9.53
2022-09-20T06:01:34.491Z,9.40
2022-09-20T06:04:27.684Z,9.37
2022-09-20T06:07:23.591Z,9.38
2022-09-20T06:10:01.036Z,9.30
2022-09-20T06:12:39.806Z,9.17
2022-09-20T06:15:24.782Z,9.11
2022-09-20T06:18:17.479Z,9.09
2022-09-20T06:21:27.942Z,9.08
2022-09-20T06:24:01.988Z,9.24
2022-09-20T06:26:37.764Z,9.86
2022-09-20T06:29:14.638Z,11.36
2022-09-20T06:31:43.372Z,12.59
2022-09-20T06:34:15.551Z,13.98
2022-09-20T06:37:09.568Z,16.01
2022-09-20T06:40:35.808Z,18.71
2022-09-20T06:43:05.623Z,19.08
2022-09-20T06:45:34.551Z,18.44
2022-09-20T06:48:03.280Z,16.70
2022-09-20T06:50:33.311Z,15.50
2022-09-20T06:53:02.875Z,15.87
2022-09-20T06:55:43.741Z,16.52
2022-09-20T06:58:12.500Z,18.04
2022-09-20T07:00:41.854Z,18.84
2022-09-20T07:03:13.245Z,19.19
2022-09-20T07:05:42.162Z,20.27
2022-09-20T07:08:11.043Z,20.73
2022-09-20T07:10:39.924Z,19.96
2022-09-20T07:13:08.679Z,18.69
2022-09-20T07:15:38.595Z,17.33
2022-09-20T07:18:08.473Z,16.04
2022-09-20T07:20:37.245Z,14.92
2022-09-20T07:23:06.007Z,14.20
2022-09-20T07:25:35.162Z,14.18
2022-09-20T07:28:04.015Z,14.46
2022-09-20T07:30:32.810Z,14.21
2022-09-20T07:33:01.458Z,13.75
2022-09-20T07:35:30.298Z,13.89
2022-09-20T07:37:59.699Z,13.46
2022-09-20T07:40:28.479Z,12.81
2022-09-20T07:42:58.584Z,12.11
2022-09-20T07:45:27.379Z,11.57
2022-09-20T07:47:58.950Z,11.24
2022-09-20T07:50:27.710Z,11.02
2022-09-20T07:52:58.228Z,10.87
2022-09-20T07:55:27.384Z,10.85
2022-09-20T07:57:56.804Z,10.78
2022-09-20T08:00:27.273Z,10.74
2022-09-20T08:03:00.056Z,10.60
2022-09-20T08:05:28.824Z,10.61
2022-09-20T08:07:57.615Z,10.91
2022-09-20T08:10:27.435Z,12.41
2022-09-20T08:15:44.963Z,16.05
2022-09-20T08:18:13.983Z,15.83
2022-09-20T08:20:42.663Z,15.24
2022-09-20T08:23:23.409Z,14.92
2022-09-20T08:25:52.701Z,14.73
2022-09-20T08:28:21.639Z,14.47
2022-09-20T08:30:50.341Z,13.86
2022-09-20T08:33:19.010Z,13.38
2022-09-20T08:35:50.768Z,12.99
2022-09-20T08:41:13.788Z,12.34
2022-09-20T08:43:53.997Z,12.19
2022-09-20T08:46:30.069Z,12.09
2022-09-20T08:49:00.527Z,11.96
2022-09-20T08:51:33.909Z,11.79
2022-09-20T08:54:05.309Z,11.79
2022-09-20T08:56:38.571Z,11.99
2022-09-20T08:59:12.687Z,12.25
2022-09-20T09:01:42.313Z,12.48
2022-09-20T09:04:16.439Z,12.36
2022-09-20T09:06:47.058Z,12.09
2022-09-20T09:09:27.314Z,11.96
2022-09-20T09:11:57.570Z,11.91
2022-09-20T09:14:51.617Z,11.82
2022-09-20T09:17:28.246Z,11.79
2022-09-20T09:19:59.726Z,11.71
2022-09-20T09:22:43.464Z,11.60
2022-09-20T09:25:17.820Z,11.54
2022-09-20T09:28:00.826Z,11.31
2022-09-20T09:30:41.416Z,11.32
2022-09-20T09:33:27.283Z,11.31
2022-09-20T09:36:03.202Z,11.24
2022-09-20T09:38:34.509Z,11.18
2022-09-20T09:41:06.318Z,11.02
2022-09-20T09:43:37.879Z,11.02
2022-09-20T09:46:24.281Z,11.04
2022-09-20T09:49:10.362Z,11.09
2022-09-20T09:51:43.804Z,11.07
2022-09-20T09:54:20.277Z,11.01
2022-09-20T09:56:58.333Z,11.02
2022-09-20T09:59:42.321Z,11.04
2022-09-20T10:02:37.801Z,11.13
2022-09-20T10:05:45.115Z,11.14
2022-09-20T10:08:23.932Z,11.10
2022-09-20T10:11:30.774Z,10.99
2022-09-20T10:14:27.252Z,10.88
2022-09-20T10:17:24.176Z,10.75
2022-09-20T10:20:25.887Z,10.62
2022-09-20T10:23:44.999Z,10.54
2022-09-20T10:26:32.927Z,10.51
2022-09-20T10:29:26.806Z,10.45
2022-09-20T10:32:13.717Z,10.33
2022-09-20T10:35:02.504Z,10.23
2022-09-20T10:37:40.162Z,10.20
2022-09-20T10:40:17.427Z,10.11
2022-09-20T10:43:15.456Z,10.07
2022-09-20T10:46:30.841Z,10.04
2022-09-20T10:49:19.838Z,9.97
2022-09-20T10:51:54.734Z,9.91
2022-09-20T10:55:04.330Z,9.89
2022-09-20T10:57:49.592Z,9.83
2022-09-20T11:00:27.579Z,9.83
2022-09-20T11:03:14.778Z,9.80
2022-09-20T11:05:58.258Z,9.80
2022-09-20T11:08:35.370Z,9.73
2022-09-20T11:11:11.041Z,9.74
2022-09-20T11:13:48.314Z,9.71
2022-09-20T11:16:28.362Z,9.69
2022-09-20T11:19:27.529Z,9.62
2022-09-20T11:22:19.454Z,9.58
2022-09-20T11:24:54.667Z,9.54
2022-09-20T11:27:30.705Z,9.51
2022-09-20T11:30:15.642Z,9.48
2022-09-20T11:32:49.841Z,9.47
2022-09-20T11:35:30.041Z,9.47
2022-09-20T11:38:04.707Z,9.45
2022-09-20T11:40:39.272Z,9.44
2022-09-20T11:43:10.492Z,9.41
2022-09-20T11:45:43.428Z,9.34
2022-09-20T11:48:38.422Z,9.28
2022-09-20T11:51:31.994Z,9.26
2022-09-20T11:54:37.404Z,9.25
2022-09-20T11:57:09.309Z,9.24
2022-09-20T11:59:41.608Z,9.21
2022-09-20T12:02:21.923Z,9.19
2022-09-20T12:04:53.918Z,9.24
2022-09-20T12:07:27.766Z,9.30
2022-09-20T12:10:01.089Z,9.34
2022-09-20T12:12:47.244Z,9.32
2022-09-20T12:15:33.143Z,9.35
2022-09-20T12:18:05.490Z,9.34
2022-09-20T12:20:39.180Z,9.33
2022-09-20T12:23:41.831Z,9.34
2022-09-20T12:26:11.599Z,9.34
2022-09-20T12:28:46.216Z,9.24
2022-09-20T12:31:26.868Z,9.24
2022-09-20T12:34:10.957Z,9.20
2022-09-20T12:36:54.319Z,9.17
2022-09-20T12:39:30.200Z,9.13
2022-09-20T12:42:04.192Z,9.17
2022-09-20T12:45:00.042Z,9.17
2022-09-20T12:47:35.783Z,9.18
2022-09-20T12:50:33.495Z,9.13
2022-09-20T12:53:09.604Z,9.16
2022-09-20T12:55:46.273Z,9.18
2022-09-20T12:58:15.078Z,9.19
2022-09-20T13:01:14.586Z,9.14
2022-09-20T13:03:46.440Z,9.17
2022-09-20T13:06:16.215Z,9.19
2022-09-20T13:08:57.616Z,9.17
2022-09-20T13:11:35.211Z,9.17
2022-09-20T13:14:07.523Z,9.17
2022-09-20T13:16:58.276Z,9.08
2022-09-20T13:19:30.410Z,9.04
2022-09-20T13:22:20.526Z,9.00
2022-09-20T13:24:51.260Z,8.99
2022-09-20T13:27:31.497Z,8.90
2022-09-20T13:30:21.404Z,8.75
2022-09-20T13:32:52.067Z,8.57
2022-09-20T13:35:24.824Z,8.51
2022-09-20T13:38:03.439Z,8.44
2022-09-20T13:40:36.238Z,8.36
2022-09-20T13:43:28.574Z,8.20
2022-09-20T13:46:00.264Z,8.18
2022-09-20T13:48:31.132Z,8.13
2022-09-20T13:51:00.274Z,8.15
2022-09-20T13:53:41.877Z,8.19
2022-09-20T13:56:32.456Z,8.15
2022-09-20T13:59:05.920Z,8.05
2022-09-20T14:01:36.533Z,8.04
2022-09-20T14:04:15.411Z,8.08
2022-09-20T14:06:44.617Z,8.16
2022-09-20T14:09:43.472Z,8.21
2022-09-20T14:12:14.195Z,8.26
2022-09-20T14:14:43.214Z,8.31
2022-09-20T14:17:19.265Z,8.35
2022-09-20T14:19:50.791Z,8.40
2022-09-20T14:22:29.900Z,8.44
2022-09-20T14:25:05.129Z,8.44
2022-09-20T14:27:33.916Z,8.44
2022-09-20T14:30:04.411Z,8.39
2022-09-20T14:33:00.020Z,8.31
2022-09-20T14:35:29.678Z,8.26
2022-09-20T14:38:08.307Z,8.17
2022-09-20T14:40:46.250Z,8.07
2022-09-20T14:43:24.204Z,7.92
2022-09-20T14:45:56.726Z,7.84
2022-09-20T14:48:25.571Z,7.76
2022-09-20T14:51:28.335Z,7.69
2022-09-20T14:54:06.315Z,7.70
2022-09-20T14:56:39.007Z,7.75
2022-09-20T14:59:19.899Z,7.76
2022-09-20T15:02:18.162Z,7.75
2022-09-20T15:04:56.877Z,7.73
2022-09-20T15:07:25.859Z,7.76
2022-09-20T15:09:54.865Z,7.78
2022-09-20T15:12:23.724Z,7.81
2022-09-20T15:14:53.206Z,7.85
2022-09-20T15:17:22.945Z,7.92
2022-09-20T15:19:51.756Z,7.97
2022-09-20T15:22:20.506Z,7.88
2022-09-20T15:24:49.239Z,7.81
2022-09-20T15:27:18.096Z,7.76
2022-09-20T15:29:46.950Z,7.66
2022-09-20T15:32:15.885Z,7.62
2022-09-20T15:34:44.659Z,7.51
2022-09-20T15:37:13.429Z,7.42
2022-09-20T15:39:42.085Z,7.37
2022-09-20T15:42:11.665Z,7.25
2022-09-20T15:44:40.510Z,7.22
2022-09-20T15:47:11.837Z,7.20
2022-09-20T15:49:47.676Z,7.23
2022-09-20T15:52:16.798Z,7.18
2022-09-20T15:54:47.161Z,7.22
2022-09-20T15:57:16.448Z,7.31
2022-09-20T15:59:45.094Z,7.35
2022-09-20T16:02:14.779Z,7.39
2022-09-20T16:04:43.710Z,7.44
2022-09-20T16:07:12.546Z,7.43
2022-09-20T16:09:41.250Z,7.48
2022-09-20T16:12:09.886Z,7.54
2022-09-20T16:14:38.539Z,7.55
2022-09-20T16:17:07.305Z,7.54
2022-09-20T16:19:36.135Z,7.55
2022-09-20T16:22:05.494Z,7.59
2022-09-20T16:24:37.155Z,7.66
2022-09-20T16:27:08.365Z,7.76
2022-09-20T16:29:37.132Z,7.76
2022-09-20T16:32:06.015Z,7.79
2022-09-20T16:34:36.972Z,7.74
2022-09-20T16:37:17.359Z,7.71
2022-09-20T16:39:46.079Z,7.69
2022-09-20T16:42:15.946Z,7.67
2022-09-20T16:44:44.703Z,7.60
2022-09-20T16:47:21.021Z,7.55
2022-09-20T16:49:51.086Z,7.52
2022-09-20T16:52:19.963Z,7.49
2022-09-20T16:54:49.014Z,7.42
2022-09-20T16:57:17.990Z,7.37
2022-09-20T16:59:47.186Z,7.37
2022-09-20T17:02:16.444Z,7.33
2022-09-20T17:04:45.322Z,7.23
2022-09-20T17:07:14.058Z,7.16
2022-09-20T17:09:42.726Z,7.10
2022-09-20T17:12:11.640Z,7.07
2022-09-20T17:14:40.328Z,7.01
2022-09-20T17:17:10.270Z,7.02
2022-09-20T17:19:38.910Z,7.08
2022-09-20T17:22:08.466Z,7.23
2022-09-20T17:24:37.156Z,7.30
2022-09-20T17:27:07.510Z,7.30
2022-09-20T17:29:36.218Z,7.28
2022-09-20T17:32:04.948Z,7.30
2022-09-20T17:34:34.394Z,7.35
2022-09-20T17:37:04.022Z,7.43
2022-09-20T17:39:32.799Z,7.47
2022-09-20T17:42:02.630Z,7.53
2022-09-20T17:44:34.170Z,7.52
2022-09-20T17:47:03.086Z,7.54
2022-09-20T17:49:31.962Z,7.50
2022-09-20T17:52:00.852Z,7.43
2022-09-20T17:54:29.602Z,7.40
2022-09-20T17:56:58.367Z,7.31
2022-09-20T17:59:27.230Z,7.30
2022-09-20T18:01:56.789Z,7.30
2022-09-20T18:04:25.715Z,7.32
2022-09-20T18:06:56.031Z,7.44
2022-09-20T18:09:27.655Z,7.51
2022-09-20T18:11:56.902Z,7.58
2022-09-20T18:14:32.210Z,7.67
2022-09-20T18:17:04.256Z,7.69
2022-09-20T18:19:33.996Z,7.71
2022-09-20T18:22:04.032Z,7.69
2022-09-20T18:24:32.936Z,7.67
2022-09-20T18:27:01.811Z,7.61
2022-09-20T18:29:34.033Z,7.56
2022-09-20T18:32:03.479Z,7.52
2022-09-20T18:34:34.804Z,7.39
2022-09-20T18:37:05.391Z,7.24
2022-09-20T18:39:35.477Z,7.15
2022-09-20T18:42:04.647Z,7.09
2022-09-20T18:44:34.318Z,7.15
2022-09-20T18:47:06.250Z,7.17
2022-09-20T18:49:34.984Z,7.08
2022-09-20T18:52:04.746Z,7.03
2022-09-20T18:54:33.949Z,6.92
2022-09-20T18:57:03.071Z,6.87
2022-09-20T18:59:31.911Z,6.87
2022-09-20T19:02:01.549Z,6.94
2022-09-20T19:04:53.806Z,6.92
2022-09-20T19:07:28.631Z,7.00
2022-09-20T19:10:09.417Z,7.05
2022-09-20T19:12:47.568Z,7.14
2022-09-20T19:15:37.540Z,7.20
2022-09-20T19:18:27.757Z,7.30
2022-09-20T19:21:20.692Z,7.30
2022-09-20T19:24:14.055Z,7.25
2022-09-20T19:26:43.545Z,7.13
2022-09-20T19:29:19.745Z,7.06
2022-09-20T19:31:56.036Z,7.09
2022-09-20T19:34:27.825Z,7.21
2022-09-20T19:37:05.510Z,7.30
2022-09-20T19:39:43.724Z,7.35
2022-09-20T19:42:38.967Z,7.28
2022-09-20T19:45:31.822Z,7.45
2022-09-20T19:48:19.017Z,7.49
2022-09-20T19:50:52.735Z,7.50
2022-09-20T19:53:28.705Z,7.53
2022-09-20T19:56:15.967Z,7.54
2022-09-20T19:58:45.567Z,7.55
2022-09-20T20:01:15.625Z,7.57
2022-09-20T20:03:47.388Z,7.56
2022-09-20T20:06:35.359Z,7.24
2022-09-20T20:09:23.813Z,6.84
2022-09-20T20:12:01.664Z,6.56
2022-09-20T20:14:39.179Z,6.29
2022-09-20T20:17:07.814Z,6.03
2022-09-20T20:19:39.297Z,5.80
2022-09-20T20:22:32.499Z,5.51
2022-09-20T20:25:01.351Z,5.26
2022-09-20T20:27:31.928Z,5.13
2022-09-20T20:30:00.945Z,5.01
2022-09-20T20:32:29.660Z,4.89
2022-09-20T20:34:58.367Z,4.83
2022-09-20T20:37:28.736Z,4.78
2022-09-20T20:39:57.455Z,4.70
2022-09-20T20:42:27.845Z,4.77
2022-09-20T20:44:56.484Z,4.75
2022-09-20T20:47:25.207Z,4.74
2022-09-20T20:49:55.600Z,4.70
2022-09-20T20:52:24.329Z,4.66
2022-09-20T20:54:52.992Z,4.57
2022-09-20T20:57:21.670Z,4.56
2022-09-20T20:59:50.321Z,4.57
2022-09-20T21:02:20.319Z,4.57
2022-09-20T21:04:49.124Z,4.56
2022-09-20T21:07:18.632Z,4.56
2022-09-20T21:09:47.474Z,4.56
2022-09-20T21:12:16.261Z,4.59
2022-09-20T21:14:45.671Z,4.59
2022-09-20T21:17:14.475Z,4.60
2022-09-20T21:19:43.152Z,4.55
2022-09-20T21:22:11.867Z,4.59
2022-09-20T21:24:40.524Z,4.62
2022-09-20T21:27:09.628Z,4.64
2022-09-20T21:29:38.351Z,4.60
2022-09-20T21:32:07.017Z,4.63
2022-09-20T21:34:36.145Z,4.65
2022-09-20T21:37:04.956Z,4.64
2022-09-20T21:39:33.594Z,4.55
2022-09-20T21:42:05.064Z,4.63
2022-09-20T21:44:33.728Z,4.61
2022-09-20T21:47:02.406Z,4.58
2022-09-20T21:49:31.019Z,4.57
2022-09-20T21:51:59.774Z,4.50
2022-09-20T21:54:29.271Z,4.36
2022-09-20T21:56:59.837Z,4.43
2022-09-20T21:59:28.552Z,4.43
2022-09-20T22:01:59.148Z,4.37
2022-09-20T22:04:29.732Z,4.26
2022-09-20T22:06:58.964Z,4.21
2022-09-20T22:09:27.649Z,4.14
2022-09-20T22:11:56.503Z,4.14
2022-09-20T22:14:25.383Z,4.11
2022-09-20T22:16:54.254Z,4.10
2022-09-20T22:19:22.930Z,4.06
2022-09-20T22:21:52.032Z,4.03
2022-09-20T22:24:20.910Z,3.83
2022-09-20T22:26:51.594Z,3.55
2022-09-20T22:29:20.760Z,3.26
2022-09-20T22:31:50.662Z,3.11
2022-09-20T22:34:21.755Z,2.88
2022-09-20T22:36:51.021Z,2.67
2022-09-20T22:39:20.002Z,2.57
2022-09-20T22:41:48.691Z,2.40
2022-09-20T22:44:17.963Z,2.27
2022-09-20T22:46:46.704Z,2.16
2022-09-20T22:49:15.502Z,2.04
2022-09-20T22:51:44.469Z,1.95
2022-09-20T22:54:13.844Z,1.91
2022-09-20T22:56:42.990Z,1.89
2022-09-20T22:59:15.607Z,1.84
2022-09-20T23:01:49.336Z,1.77
2022-09-20T23:04:20.471Z,1.77
2022-09-20T23:06:57.240Z,1.58
2022-09-20T23:09:30.335Z,1.62
2022-09-20T23:11:59.378Z,1.50
2022-09-20T23:14:28.079Z,1.42
2022-09-20T23:16:56.909Z,1.29
2022-09-20T23:19:26.069Z,1.23
2022-09-20T23:21:54.779Z,1.15
2022-09-20T23:24:23.494Z,1.21
2022-09-20T23:26:52.594Z,1.24
2022-09-20T23:29:21.593Z,1.29
2022-09-20T23:31:50.559Z,1.44
2022-09-20T23:34:19.276Z,1.54
2022-09-20T23:36:48.098Z,1.56
2022-09-20T23:39:17.004Z,1.59
2022-09-20T23:41:50.649Z,1.58
2022-09-20T23:44:19.917Z,1.66
2022-09-20T23:46:48.601Z,1.74
2022-09-20T23:49:17.370Z,1.74
2022-09-20T23:51:46.073Z,1.74
2022-09-20T23:54:14.793Z,1.77
2022-09-20T23:56:43.545Z,1.74
2022-09-20T23:59:12.337Z,1.75
